Aérodrome :
LOGIN :

S'inscrire | Disclaimer

   EN    FR    IT 

 










Légende :    VFR   VFR Marginal   IFR   IFR Intensif   IFR Très Intensif
Visi : 
Plafond : 
>= 8 km
>= 3000ft
5 à 8 km
1000 à 3000 ft
1500m à 5 km
500 à 1000 ft
800 à 1500m
200 à 500 ft
< 800m
< 200 ft
Symboles :   Orages  Brouillard  Fortes neiges  Fortes précipitations  Vent > 20 kt
SIGMETs :   Divers  Orages  Givrage  Turbulence  Onde Orograph.  Cendres Volcan.






- Altitude de l'aérodrome : 0 ft


ENOA - Oseberg A Platform

DERNIER METAR :
  • 272250Z 19027KT 9999 SCT030 05/00 Q0986 W///S5

METARs EXPIRÉS :
  • 272150Z 19031KT 9999 FEW030 BKN140 05/00 Q0986 W///S5

TAF ENOA
Valide du 28 à 00h jusqu'au 29 à 00h UTC


2800/2824 20025KT 9999 FEW015TCU BKN030
BECMG 2806/2809 14020KT
BECMG 2812/2815 08015KT
BECMG 2818/2821 26012KT



MET'MAP, la Météo Aéronautique d'un coup d'oeil ! - Copyright ORBIFLY Décembre 2007 - Disclaimer

ORBIFLY MET'MAP TEAM :

Programmation & Développement : Alexandra Zaïnal
Sur une idée originale de : Baudouin d'Aumeries
Assistance à la programmation : Marc-Olivier Méhu
Soutien technique & logistique : Manuel Goepfert

Contact : metmap@orbifly.com




SOURCES & CREDITS :

   NOAA